Aviation Digital Data Service (ADDS)

Output produced by METARs form (1259 UTC 19 January 2019)
found at http://www.aviationweather.gov/metar/data/
 
Forecast for: EGMC (SOUTHEND-ON-SEA , GB)
Text: TAF EGMC 191056Z 1912/1921 13009KT 9999 BKN040
Forecast period: 1200 to 2100 UTC 19 January 2019
Forecast type: FROM: standard forecast or significant change
Winds: from the SE (130 degrees) at 10 MPH (9 knots; 4.6 m/s)
Visibility: 6 or more miles 10+ km)
Ceiling: 4000 feet AGL
Clouds: broken clouds at 4000 feet AGL
Weather: no significant weather forecast for this period
Text: TEMPO 1912/1921 6000 -RADZ BKN012
Forecast period: 1200 to 2100 UTC 19 January 2019
Forecast type: TEMPORARY: The following changes expected for less than half the time period
Visibility: 4 miles (6 km)
Ceiling: 1200 feet AGL
Clouds: broken clouds at 1200 feet AGL
Weather: -RA -DZ  (light rain, light drizzle)